sensor_id;sensor_type;location;lat;lon;timestamp;pressure;altitude;pressure_sealevel;temperature;humidity
78229;BME280;74448;49.082;9.152;2024-03-06T00:01:53;99411.97;;;9.42;63.63
78229;BME280;74448;49.082;9.152;2024-03-06T00:04:20;99415.75;;;9.38;63.63
78229;BME280;74448;49.082;9.152;2024-03-06T00:06:47;99409.84;;;9.34;63.28
78229;BME280;74448;49.082;9.152;2024-03-06T00:09:14;99420.19;;;9.37;63.61
78229;BME280;74448;49.082;9.152;2024-03-06T00:11:40;99424.50;;;9.38;63.35
78229;BME280;74448;49.082;9.152;2024-03-06T00:14:07;99420.19;;;9.37;63.80
78229;BME280;74448;49.082;9.152;2024-03-06T00:16:33;99423.69;;;9.38;63.68
78229;BME280;74448;49.082;9.152;2024-03-06T00:19:00;99415.97;;;9.35;63.71
78229;BME280;74448;49.082;9.152;2024-03-06T00:21:27;99425.69;;;9.34;63.59
78229;BME280;74448;49.082;9.152;2024-03-06T00:23:55;99425.69;;;9.34;63.60
78229;BME280;74448;49.082;9.152;2024-03-06T00:26:22;99419.69;;;9.32;63.57
78229;BME280;74448;49.082;9.152;2024-03-06T00:28:48;99420.41;;;9.34;63.80
78229;BME280;74448;49.082;9.152;2024-03-06T00:31:15;99429.47;;;9.30;63.59
78229;BME280;74448;49.082;9.152;2024-03-06T00:33:41;99420.63;;;9.31;63.61
78229;BME280;74448;49.082;9.152;2024-03-06T00:36:08;99432.88;;;9.32;63.62
78229;BME280;74448;49.082;9.152;2024-03-06T00:38:35;99427.69;;;9.31;63.64
78229;BME280;74448;49.082;9.152;2024-03-06T00:41:01;99422.53;;;9.29;63.55
78229;BME280;74448;49.082;9.152;2024-03-06T00:43:28;99426.97;;;9.29;63.51
78229;BME280;74448;49.082;9.152;2024-03-06T00:45:54;99424.22;;;9.30;63.68
78229;BME280;74448;49.082;9.152;2024-03-06T00:48:21;99427.81;;;9.29;63.87
78229;BME280;74448;49.082;9.152;2024-03-06T00:50:48;99429.69;;;9.27;63.84
78229;BME280;74448;49.082;9.152;2024-03-06T00:53:14;99428.84;;;9.27;63.60
78229;BME280;74448;49.082;9.152;2024-03-06T00:55:41;99431.59;;;9.25;64.01
78229;BME280;74448;49.082;9.152;2024-03-06T00:58:08;99440.25;;;9.27;63.74
78229;BME280;74448;49.082;9.152;2024-03-06T01:00:34;99435.19;;;9.24;63.81
78229;BME280;74448;49.082;9.152;2024-03-06T01:03:01;99442.16;;;9.25;63.75
78229;BME280;74448;49.082;9.152;2024-03-06T01:05:27;99443.94;;;9.25;63.74
78229;BME280;74448;49.082;9.152;2024-03-06T01:07:54;99444.03;;;9.23;63.65
78229;BME280;74448;49.082;9.152;2024-03-06T01:10:21;99438.03;;;9.21;63.88
78229;BME280;74448;49.082;9.152;2024-03-06T01:12:47;99433.50;;;9.23;63.70
78229;BME280;74448;49.082;9.152;2024-03-06T01:15:14;99435.50;;;9.19;63.74
78229;BME280;74448;49.082;9.152;2024-03-06T01:17:41;99438.88;;;9.21;63.85
78229;BME280;74448;49.082;9.152;2024-03-06T01:20:08;99442.56;;;9.19;63.83
78229;BME280;74448;49.082;9.152;2024-03-06T01:22:35;99440.75;;;9.19;63.79
78229;BME280;74448;49.082;9.152;2024-03-06T01:25:02;99437.28;;;9.19;63.75
78229;BME280;74448;49.082;9.152;2024-03-06T01:27:28;99441.09;;;9.15;64.08
78229;BME280;74448;49.082;9.152;2024-03-06T01:29:55;99445.13;;;9.20;63.88
78229;BME280;74448;49.082;9.152;2024-03-06T01:32:22;99441.72;;;9.18;63.63
78229;BME280;74448;49.082;9.152;2024-03-06T01:34:48;99447.09;;;9.17;63.80
78229;BME280;74448;49.082;9.152;2024-03-06T01:37:15;99449.75;;;9.17;63.93
78229;BME280;74448;49.082;9.152;2024-03-06T01:39:41;99441.09;;;9.15;63.97
78229;BME280;74448;49.082;9.152;2024-03-06T01:42:08;99452.38;;;9.17;63.80
78229;BME280;74448;49.082;9.152;2024-03-06T01:44:35;99437.72;;;9.13;63.77
78229;BME280;74448;49.082;9.152;2024-03-06T01:47:02;99442.88;;;9.14;63.74
78229;BME280;74448;49.082;9.152;2024-03-06T01:49:28;99450.69;;;9.16;63.72
78229;BME280;74448;49.082;9.152;2024-03-06T01:52:08;99449.00;;;9.15;63.65
78229;BME280;74448;49.082;9.152;2024-03-06T01:54:36;99457.84;;;9.14;64.03
78229;BME280;74448;49.082;9.152;2024-03-06T01:57:03;99451.88;;;9.12;63.71
78229;BME280;74448;49.082;9.152;2024-03-06T01:59:30;99450.16;;;9.11;63.83
78229;BME280;74448;49.082;9.152;2024-03-06T02:02:03;99444.88;;;9.11;63.92
78229;BME280;74448;49.082;9.152;2024-03-06T02:04:31;99447.50;;;9.11;63.66
78229;BME280;74448;49.082;9.152;2024-03-06T02:06:58;99451.88;;;9.12;63.88
78229;BME280;74448;49.082;9.152;2024-03-06T02:09:24;99448.38;;;9.11;63.63
78229;BME280;74448;49.082;9.152;2024-03-06T02:11:51;99445.94;;;9.08;63.77
78229;BME280;74448;49.082;9.152;2024-03-06T02:14:17;99445.84;;;9.10;63.77
78229;BME280;74448;49.082;9.152;2024-03-06T02:16:44;99451.22;;;9.08;63.97
78229;BME280;74448;49.082;9.152;2024-03-06T02:19:11;99451.44;;;9.05;63.83
78229;BME280;74448;49.082;9.152;2024-03-06T02:21:38;99450.59;;;9.05;63.96
78229;BME280;74448;49.082;9.152;2024-03-06T02:24:04;99459.22;;;9.07;63.78
78229;BME280;74448;49.082;9.152;2024-03-06T02:26:31;99461.13;;;9.05;63.88
78229;BME280;74448;49.082;9.152;2024-03-06T02:28:57;99466.41;;;9.05;63.90
78229;BME280;74448;49.082;9.152;2024-03-06T02:31:24;99455.84;;;9.05;63.81
78229;BME280;74448;49.082;9.152;2024-03-06T02:33:51;99458.81;;;9.00;63.85
78229;BME280;74448;49.082;9.152;2024-03-06T02:36:18;99456.91;;;9.02;63.77
78229;BME280;74448;49.082;9.152;2024-03-06T02:38:45;99457.75;;;9.03;63.85
78229;BME280;74448;49.082;9.152;2024-03-06T02:41:12;99457.75;;;9.03;64.04
78229;BME280;74448;49.082;9.152;2024-03-06T02:43:41;99457.97;;;9.00;63.74
78229;BME280;74448;49.082;9.152;2024-03-06T02:46:09;99442.56;;;8.93;63.85
78229;BME280;74448;49.082;9.152;2024-03-06T02:48:35;99445.50;;;9.02;63.85
78229;BME280;74448;49.082;9.152;2024-03-06T02:51:02;99441.31;;;8.99;63.96
78229;BME280;74448;49.082;9.152;2024-03-06T02:53:29;99439.59;;;8.98;63.91
78229;BME280;74448;49.082;9.152;2024-03-06T02:55:55;99441.41;;;8.97;63.89
78229;BME280;74448;49.082;9.152;2024-03-06T02:58:22;99444.78;;;9.00;63.90
78229;BME280;74448;49.082;9.152;2024-03-06T03:00:48;99453.63;;;8.98;63.89
78229;BME280;74448;49.082;9.152;2024-03-06T03:03:15;99458.91;;;8.98;63.61
78229;BME280;74448;49.082;9.152;2024-03-06T03:05:42;99433.09;;;8.91;63.85
78229;BME280;74448;49.082;9.152;2024-03-06T03:08:08;99448.47;;;8.97;64.07
78229;BME280;74448;49.082;9.152;2024-03-06T03:10:35;99453.75;;;8.97;63.76
78229;BME280;74448;49.082;9.152;2024-03-06T03:13:02;99452.06;;;8.96;64.27
78229;BME280;74448;49.082;9.152;2024-03-06T03:15:28;99445.94;;;8.95;63.74
78229;BME280;74448;49.082;9.152;2024-03-06T03:17:55;99454.78;;;8.94;63.86
78229;BME280;74448;49.082;9.152;2024-03-06T03:20:22;99447.81;;;8.93;63.98
78229;BME280;74448;49.082;9.152;2024-03-06T03:22:48;99441.50;;;8.83;64.00
78229;BME280;74448;49.082;9.152;2024-03-06T03:25:15;99455.97;;;8.90;63.93
78229;BME280;74448;49.082;9.152;2024-03-06T03:27:42;99464.47;;;8.94;64.05
78229;BME280;74448;49.082;9.152;2024-03-06T03:30:10;99467.22;;;8.92;63.75
78229;BME280;74448;49.082;9.152;2024-03-06T03:32:37;99467.22;;;8.92;63.89
78229;BME280;74448;49.082;9.152;2024-03-06T03:35:05;99469.16;;;8.90;63.89
78229;BME280;74448;49.082;9.152;2024-03-06T03:37:32;99470.81;;;8.91;63.96
78229;BME280;74448;49.082;9.152;2024-03-06T03:39:58;99474.41;;;8.90;63.83
78229;BME280;74448;49.082;9.152;2024-03-06T03:42:25;99458.34;;;8.81;63.74
78229;BME280;74448;49.082;9.152;2024-03-06T03:44:52;99470.19;;;8.88;63.97
78229;BME280;74448;49.082;9.152;2024-03-06T03:47:18;99466.59;;;8.89;63.80
78229;BME280;74448;49.082;9.152;2024-03-06T03:49:45;99462.38;;;8.86;63.95
78229;BME280;74448;49.082;9.152;2024-03-06T03:52:22;99465.03;;;8.86;63.90
78229;BME280;74448;49.082;9.152;2024-03-06T03:54:48;99458.16;;;8.84;63.56
78229;BME280;74448;49.082;9.152;2024-03-06T03:57:15;99460.16;;;8.80;63.96
78229;BME280;74448;49.082;9.152;2024-03-06T03:59:43;99467.84;;;8.83;63.95
78229;BME280;74448;49.082;9.152;2024-03-06T04:02:10;99467.84;;;8.83;63.97
78229;BME280;74448;49.082;9.152;2024-03-06T04:04:36;99468.81;;;8.82;64.06
78229;BME280;74448;49.082;9.152;2024-03-06T04:07:03;99468.81;;;8.82;64.00
78229;BME280;74448;49.082;9.152;2024-03-06T04:09:33;99467.94;;;8.82;63.89
78229;BME280;74448;49.082;9.152;2024-03-06T04:12:03;99462.34;;;8.73;63.67
78229;BME280;74448;49.082;9.152;2024-03-06T04:14:30;99473.31;;;8.80;63.82
78229;BME280;74448;49.082;9.152;2024-03-06T04:16:56;99485.56;;;8.81;63.88
78229;BME280;74448;49.082;9.152;2024-03-06T04:19:23;99486.38;;;8.82;63.91
78229;BME280;74448;49.082;9.152;2024-03-06T04:21:50;99485.56;;;8.81;63.82
78229;BME280;74448;49.082;9.152;2024-03-06T04:24:16;99482.19;;;8.79;63.97
78229;BME280;74448;49.082;9.152;2024-03-06T04:26:43;99482.28;;;8.78;64.06
78229;BME280;74448;49.082;9.152;2024-03-06T04:29:09;99491.97;;;8.77;64.01
78229;BME280;74448;49.082;9.152;2024-03-06T04:31:36;99497.16;;;8.79;63.83
78229;BME280;74448;49.082;9.152;2024-03-06T04:34:03;99489.56;;;8.74;63.95
78229;BME280;74448;49.082;9.152;2024-03-06T04:36:30;99499.88;;;8.77;63.99
78229;BME280;74448;49.082;9.152;2024-03-06T04:38:56;99503.34;;;8.78;63.79
78229;BME280;74448;49.082;9.152;2024-03-06T04:41:23;99505.16;;;8.77;64.12
78229;BME280;74448;49.082;9.152;2024-03-06T04:43:50;99501.78;;;8.75;63.90
78229;BME280;74448;49.082;9.152;2024-03-06T04:46:17;99503.66;;;8.73;63.98
78229;BME280;74448;49.082;9.152;2024-03-06T04:48:44;99517.59;;;8.75;64.12
78229;BME280;74448;49.082;9.152;2024-03-06T04:51:13;99511.56;;;8.73;63.87
78229;BME280;74448;49.082;9.152;2024-03-06T04:53:39;99514.19;;;8.73;63.98
78229;BME280;74448;49.082;9.152;2024-03-06T04:56:07;99514.44;;;8.70;64.02
78229;BME280;74448;49.082;9.152;2024-03-06T04:58:34;99524.75;;;8.73;63.98
78229;BME280;74448;49.082;9.152;2024-03-06T05:01:00;99517.91;;;8.70;63.92
78229;BME280;74448;49.082;9.152;2024-03-06T05:03:27;99528.34;;;8.72;63.89
78229;BME280;74448;49.082;9.152;2024-03-06T05:06:11;99524.84;;;8.71;63.82
78229;BME280;74448;49.082;9.152;2024-03-06T05:08:55;99520.19;;;8.62;63.92
78229;BME280;74448;49.082;9.152;2024-03-06T05:11:39;99530.31;;;8.68;64.15
78229;BME280;74448;49.082;9.152;2024-03-06T05:14:23;99532.94;;;8.68;63.67
78229;BME280;74448;49.082;9.152;2024-03-06T05:17:07;99534.03;;;8.66;64.07
78229;BME280;74448;49.082;9.152;2024-03-06T05:19:54;99538.22;;;8.68;63.92
78229;BME280;74448;49.082;9.152;2024-03-06T05:22:38;99540.03;;;8.68;63.95
78229;BME280;74448;49.082;9.152;2024-03-06T05:25:22;99540.97;;;8.67;63.90
78229;BME280;74448;49.082;9.152;2024-03-06T05:28:07;99542.75;;;8.66;63.97
78229;BME280;74448;49.082;9.152;2024-03-06T05:30:51;99549.06;;;8.64;63.84
78229;BME280;74448;49.082;9.152;2024-03-06T05:33:35;99546.44;;;8.64;64.02
78229;BME280;74448;49.082;9.152;2024-03-06T05:36:18;99561.41;;;8.63;63.97
78229;BME280;74448;49.082;9.152;2024-03-06T05:39:02;99555.28;;;8.63;63.87
78229;BME280;74448;49.082;9.152;2024-03-06T05:41:50;99559.59;;;8.64;63.85
78229;BME280;74448;49.082;9.152;2024-03-06T05:44:34;99557.91;;;8.63;63.89
78229;BME280;74448;49.082;9.152;2024-03-06T05:47:18;99555.41;;;8.61;64.01
78229;BME280;74448;49.082;9.152;2024-03-06T05:50:07;99567.69;;;8.61;64.01
78229;BME280;74448;49.082;9.152;2024-03-06T05:52:51;99572.97;;;8.61;64.07
78229;BME280;74448;49.082;9.152;2024-03-06T05:55:35;99568.66;;;8.60;64.08
78229;BME280;74448;49.082;9.152;2024-03-06T05:58:19;99569.59;;;8.59;64.12
78229;BME280;74448;49.082;9.152;2024-03-06T06:00:47;99570.63;;;8.56;64.10
78229;BME280;74448;49.082;9.152;2024-03-06T06:03:15;99580.88;;;8.61;64.13
78229;BME280;74448;49.082;9.152;2024-03-06T06:05:41;99585.41;;;8.59;63.93
78229;BME280;74448;49.082;9.152;2024-03-06T06:08:08;99590.56;;;8.60;64.11
78229;BME280;74448;49.082;9.152;2024-03-06T06:10:34;99569.34;;;8.49;63.96
78229;BME280;74448;49.082;9.152;2024-03-06T06:13:01;99597.63;;;8.60;64.03
78229;BME280;74448;49.082;9.152;2024-03-06T06:15:31;99594.25;;;8.58;64.17
78229;BME280;74448;49.082;9.152;2024-03-06T06:17:58;99598.88;;;8.54;63.92
78229;BME280;74448;49.082;9.152;2024-03-06T06:20:25;99604.03;;;8.56;64.21
78229;BME280;74448;49.082;9.152;2024-03-06T06:22:51;99605.72;;;8.57;64.08
78229;BME280;74448;49.082;9.152;2024-03-06T06:25:18;99612.06;;;8.54;63.79
78229;BME280;74448;49.082;9.152;2024-03-06T06:27:45;99618.06;;;8.56;64.12
78229;BME280;74448;49.082;9.152;2024-03-06T06:30:11;99615.72;;;8.52;64.24
78229;BME280;74448;49.082;9.152;2024-03-06T06:32:40;99602.19;;;8.43;63.96
78229;BME280;74448;49.082;9.152;2024-03-06T06:35:09;99624.38;;;8.54;64.02
78229;BME280;74448;49.082;9.152;2024-03-06T06:37:36;99624.38;;;8.54;64.06
78229;BME280;74448;49.082;9.152;2024-03-06T06:40:04;99615.47;;;8.42;63.85
78229;BME280;74448;49.082;9.152;2024-03-06T06:42:36;99629.72;;;8.52;64.05
78229;BME280;74448;49.082;9.152;2024-03-06T06:45:04;99635.09;;;8.51;63.94
78229;BME280;74448;49.082;9.152;2024-03-06T06:47:33;99635.00;;;8.52;63.83
78229;BME280;74448;49.082;9.152;2024-03-06T06:50:00;99632.38;;;8.52;63.86
78229;BME280;74448;49.082;9.152;2024-03-06T06:52:26;99643.75;;;8.53;63.95
78229;BME280;74448;49.082;9.152;2024-03-06T06:54:54;99638.69;;;8.50;64.12
78229;BME280;74448;49.082;9.152;2024-03-06T06:57:22;99626.84;;;8.42;64.05
78229;BME280;74448;49.082;9.152;2024-03-06T06:59:48;99641.41;;;8.48;64.00
78229;BME280;74448;49.082;9.152;2024-03-06T07:02:15;99647.34;;;8.52;64.01
78229;BME280;74448;49.082;9.152;2024-03-06T07:04:41;99649.22;;;8.50;63.84
78229;BME280;74448;49.082;9.152;2024-03-06T07:07:08;99648.47;;;8.47;64.11
78229;BME280;74448;49.082;9.152;2024-03-06T07:09:34;99658.09;;;8.48;63.97
78229;BME280;74448;49.082;9.152;2024-03-06T07:12:01;99651.22;;;8.46;64.16
78229;BME280;74448;49.082;9.152;2024-03-06T07:14:29;99645.09;;;8.45;63.83
78229;BME280;74448;49.082;9.152;2024-03-06T07:16:56;99645.16;;;8.44;64.02
78229;BME280;74448;49.082;9.152;2024-03-06T07:19:22;99657.22;;;8.48;63.98
78229;BME280;74448;49.082;9.152;2024-03-06T07:21:49;99659.09;;;8.46;63.97
78229;BME280;74448;49.082;9.152;2024-03-06T07:24:16;99655.81;;;8.42;64.05
78229;BME280;74448;49.082;9.152;2024-03-06T07:26:43;99659.09;;;8.46;64.00
78229;BME280;74448;49.082;9.152;2024-03-06T07:29:10;99665.31;;;8.45;64.03
78229;BME280;74448;49.082;9.152;2024-03-06T07:31:42;99668.81;;;8.45;64.03
78229;BME280;74448;49.082;9.152;2024-03-06T07:34:08;99664.56;;;8.43;64.06
78229;BME280;74448;49.082;9.152;2024-03-06T07:36:35;99664.38;;;8.46;64.28
78229;BME280;74448;49.082;9.152;2024-03-06T07:39:03;99669.75;;;8.44;64.07
78229;BME280;74448;49.082;9.152;2024-03-06T07:41:30;99670.66;;;8.43;64.02
78229;BME280;74448;49.082;9.152;2024-03-06T07:43:59;99668.88;;;8.44;64.10
78229;BME280;74448;49.082;9.152;2024-03-06T07:46:26;99674.25;;;8.42;64.30
78229;BME280;74448;49.082;9.152;2024-03-06T07:48:53;99676.78;;;8.44;63.70
78229;BME280;74448;49.082;9.152;2024-03-06T07:51:19;99673.53;;;8.40;64.02
78229;BME280;74448;49.082;9.152;2024-03-06T07:53:46;99678.69;;;8.42;64.11
78229;BME280;74448;49.082;9.152;2024-03-06T07:56:13;99691.84;;;8.42;64.19
78229;BME280;74448;49.082;9.152;2024-03-06T07:58:40;99682.34;;;8.39;64.00
78229;BME280;74448;49.082;9.152;2024-03-06T08:01:06;99678.03;;;8.38;64.02
78229;BME280;74448;49.082;9.152;2024-03-06T08:03:33;99680.53;;;8.40;64.46
78229;BME280;74448;49.082;9.152;2024-03-06T08:06:00;99699.84;;;8.40;64.19
78229;BME280;74448;49.082;9.152;2024-03-06T08:08:27;99692.13;;;8.37;64.18
78229;BME280;74448;49.082;9.152;2024-03-06T08:10:53;99702.50;;;8.40;64.01
78229;BME280;74448;49.082;9.152;2024-03-06T08:13:20;99692.13;;;8.37;64.01
78229;BME280;74448;49.082;9.152;2024-03-06T08:15:46;99695.50;;;8.39;64.06
78229;BME280;74448;49.082;9.152;2024-03-06T08:18:13;99700.03;;;8.37;64.07
78229;BME280;74448;49.082;9.152;2024-03-06T08:20:41;99704.34;;;8.38;64.10
78229;BME280;74448;49.082;9.152;2024-03-06T08:23:09;99701.81;;;8.37;64.18
78229;BME280;74448;49.082;9.152;2024-03-06T08:25:39;99707.09;;;8.37;64.05
78229;BME280;74448;49.082;9.152;2024-03-06T08:28:06;99705.31;;;8.37;64.09
78229;BME280;74448;49.082;9.152;2024-03-06T08:30:35;99691.72;;;8.29;64.10
78229;BME280;74448;49.082;9.152;2024-03-06T08:33:01;99706.16;;;8.38;64.13
78229;BME280;74448;49.082;9.152;2024-03-06T08:35:29;99709.78;;;8.35;64.10
78229;BME280;74448;49.082;9.152;2024-03-06T08:37:56;99706.22;;;8.36;64.06
78229;BME280;74448;49.082;9.152;2024-03-06T08:40:25;99692.69;;;8.28;64.12
78229;BME280;74448;49.082;9.152;2024-03-06T08:42:54;99708.84;;;8.36;63.95
78229;BME280;74448;49.082;9.152;2024-03-06T08:45:21;99712.38;;;8.37;64.17
78229;BME280;74448;49.082;9.152;2024-03-06T08:47:48;99714.06;;;8.38;64.17
78229;BME280;74448;49.082;9.152;2024-03-06T08:50:15;99710.56;;;8.37;63.97
78229;BME280;74448;49.082;9.152;2024-03-06T08:52:42;99702.66;;;8.37;63.78
78229;BME280;74448;49.082;9.152;2024-03-06T08:55:09;99713.22;;;8.37;64.19
78229;BME280;74448;49.082;9.152;2024-03-06T08:57:36;99714.13;;;8.36;63.93
78229;BME280;74448;49.082;9.152;2024-03-06T09:00:06;99717.63;;;8.37;64.01
78229;BME280;74448;49.082;9.152;2024-03-06T09:02:38;99719.31;;;8.38;63.95
78229;BME280;74448;49.082;9.152;2024-03-06T09:05:06;99711.66;;;8.33;64.08
78229;BME280;74448;49.082;9.152;2024-03-06T09:07:33;99723.88;;;8.34;64.03
78229;BME280;74448;49.082;9.152;2024-03-06T09:10:04;99714.31;;;8.33;64.02
78229;BME280;74448;49.082;9.152;2024-03-06T09:12:32;99724.72;;;8.35;64.09
78229;BME280;74448;49.082;9.152;2024-03-06T09:14:59;99717.66;;;8.35;63.83
78229;BME280;74448;49.082;9.152;2024-03-06T09:17:26;99722.03;;;8.36;64.29
78229;BME280;74448;49.082;9.152;2024-03-06T09:19:54;99726.41;;;8.36;63.97
78229;BME280;74448;49.082;9.152;2024-03-06T09:22:35;99722.09;;;8.35;64.12
78229;BME280;74448;49.082;9.152;2024-03-06T09:25:03;99725.56;;;8.35;63.78
78229;BME280;74448;49.082;9.152;2024-03-06T09:27:29;99716.94;;;8.33;63.87
78229;BME280;74448;49.082;9.152;2024-03-06T09:29:56;99719.56;;;8.33;64.12
78229;BME280;74448;49.082;9.152;2024-03-06T09:32:22;99726.63;;;8.33;63.95
78229;BME280;74448;49.082;9.152;2024-03-06T09:34:49;99723.22;;;8.31;64.08
78229;BME280;74448;49.082;9.152;2024-03-06T09:37:16;99723.50;;;8.26;64.15
78229;BME280;74448;49.082;9.152;2024-03-06T09:39:42;99737.91;;;8.35;64.07
78229;BME280;74448;49.082;9.152;2024-03-06T09:42:14;99734.44;;;8.34;63.90
78229;BME280;74448;49.082;9.152;2024-03-06T09:44:41;99745.81;;;8.35;63.85
78229;BME280;74448;49.082;9.152;2024-03-06T09:47:12;99745.81;;;8.35;63.94
78229;BME280;74448;49.082;9.152;2024-03-06T09:49:39;99745.81;;;8.35;63.96
78229;BME280;74448;49.082;9.152;2024-03-06T09:52:06;99748.53;;;8.33;63.89
78229;BME280;74448;49.082;9.152;2024-03-06T09:54:33;99740.63;;;8.33;63.91
78229;BME280;74448;49.082;9.152;2024-03-06T09:57:00;99737.06;;;8.34;63.94
78229;BME280;74448;49.082;9.152;2024-03-06T09:59:27;99738.00;;;8.33;64.21
78229;BME280;74448;49.082;9.152;2024-03-06T10:01:57;99744.00;;;8.35;64.30
78229;BME280;74448;49.082;9.152;2024-03-06T10:04:28;99746.75;;;8.34;63.89
78229;BME280;74448;49.082;9.152;2024-03-06T10:06:56;99744.97;;;8.34;64.13
78229;BME280;74448;49.082;9.152;2024-03-06T10:09:24;99744.97;;;8.34;63.97
78229;BME280;74448;49.082;9.152;2024-03-06T10:11:51;99747.59;;;8.34;64.00
78229;BME280;74448;49.082;9.152;2024-03-06T10:14:24;99744.97;;;8.34;63.99
78229;BME280;74448;49.082;9.152;2024-03-06T10:16:58;99753.69;;;8.35;63.93
78229;BME280;74448;49.082;9.152;2024-03-06T10:19:27;99751.06;;;8.35;64.03
78229;BME280;74448;49.082;9.152;2024-03-06T10:21:55;99744.22;;;8.32;63.93
78229;BME280;74448;49.082;9.152;2024-03-06T10:24:27;99758.13;;;8.34;64.04
78229;BME280;74448;49.082;9.152;2024-03-06T10:26:56;99755.50;;;8.34;64.04
78229;BME280;74448;49.082;9.152;2024-03-06T10:29:26;99752.00;;;8.34;63.98
78229;BME280;74448;49.082;9.152;2024-03-06T10:31:55;99755.50;;;8.34;63.96
78229;BME280;74448;49.082;9.152;2024-03-06T10:34:27;99755.38;;;8.36;63.93
78229;BME280;74448;49.082;9.152;2024-03-06T10:36:55;99752.00;;;8.34;63.88
78229;BME280;74448;49.082;9.152;2024-03-06T10:39:23;99759.81;;;8.35;64.06
78229;BME280;74448;49.082;9.152;2024-03-06T10:41:55;99762.56;;;8.34;63.89
78229;BME280;74448;49.082;9.152;2024-03-06T10:44:24;99762.44;;;8.35;63.78
78229;BME280;74448;49.082;9.152;2024-03-06T10:46:59;99765.88;;;8.37;63.82
78229;BME280;74448;49.082;9.152;2024-03-06T10:49:28;99766.88;;;8.35;63.60
78229;BME280;74448;49.082;9.152;2024-03-06T10:52:02;99776.41;;;8.37;63.85
78229;BME280;74448;49.082;9.152;2024-03-06T10:54:34;99767.72;;;8.35;63.89
78229;BME280;74448;49.082;9.152;2024-03-06T10:57:03;99763.50;;;8.33;63.86
78229;BME280;74448;49.082;9.152;2024-03-06T10:59:30;99772.13;;;8.35;63.46
78229;BME280;74448;49.082;9.152;2024-03-06T11:01:58;99765.88;;;8.37;63.66
78229;BME280;74448;49.082;9.152;2024-03-06T11:04:30;99772.00;;;8.38;63.63
78229;BME280;74448;49.082;9.152;2024-03-06T11:07:01;99762.84;;;8.29;63.68
78229;BME280;74448;49.082;9.152;2024-03-06T11:09:36;99768.53;;;8.37;63.57
78229;BME280;74448;49.082;9.152;2024-03-06T11:12:04;99765.09;;;8.35;63.81
78229;BME280;74448;49.082;9.152;2024-03-06T11:14:38;99767.56;;;8.38;63.82
78229;BME280;74448;49.082;9.152;2024-03-06T11:17:07;99764.94;;;8.38;63.80
78229;BME280;74448;49.082;9.152;2024-03-06T11:28:23;99768.41;;;8.39;63.88
78229;BME280;74448;49.082;9.152;2024-03-06T11:33:39;99767.72;;;8.35;63.58
78229;BME280;74448;49.082;9.152;2024-03-06T11:36:24;99770.19;;;8.38;63.77
78229;BME280;74448;49.082;9.152;2024-03-06T11:39:08;99766.63;;;8.39;63.62
78229;BME280;74448;49.082;9.152;2024-03-06T11:44:02;99760.44;;;8.40;63.69
78229;BME280;74448;49.082;9.152;2024-03-06T11:49:19;99759.56;;;8.40;63.59
78229;BME280;74448;49.082;9.152;2024-03-06T11:51:54;99762.31;;;8.38;63.58
78229;BME280;74448;49.082;9.152;2024-03-06T11:54:21;99752.97;;;8.33;63.64
78229;BME280;74448;49.082;9.152;2024-03-06T11:56:55;99764.75;;;8.41;63.75
78229;BME280;74448;49.082;9.152;2024-03-06T11:59:23;99766.44;;;8.42;63.68
78229;BME280;74448;49.082;9.152;2024-03-06T12:02:02;99764.00;;;8.39;63.68
78229;BME280;74448;49.082;9.152;2024-03-06T12:04:30;99769.91;;;8.43;63.63
78229;BME280;74448;49.082;9.152;2024-03-06T12:06:58;99769.06;;;8.42;63.57
78229;BME280;74448;49.082;9.152;2024-03-06T12:09:36;99768.13;;;8.43;63.67
78229;BME280;74448;49.082;9.152;2024-03-06T12:12:08;99768.13;;;8.43;63.55
78229;BME280;74448;49.082;9.152;2024-03-06T12:14:36;99760.44;;;8.40;63.41
78229;BME280;74448;49.082;9.152;2024-03-06T12:17:02;99770.75;;;8.43;63.71
78229;BME280;74448;49.082;9.152;2024-03-06T12:19:35;99771.59;;;8.44;63.56
78229;BME280;74448;49.082;9.152;2024-03-06T12:22:05;99767.22;;;8.44;63.68
78229;BME280;74448;49.082;9.152;2024-03-06T12:24:32;99759.38;;;8.43;63.47
78229;BME280;74448;49.082;9.152;2024-03-06T12:27:03;99762.97;;;8.42;63.46
78229;BME280;74448;49.082;9.152;2024-03-06T12:29:32;99751.00;;;8.36;63.59
78229;BME280;74448;49.082;9.152;2024-03-06T12:31:59;99772.38;;;8.46;63.49
78229;BME280;74448;49.082;9.152;2024-03-06T12:34:27;99761.84;;;8.46;63.49
78229;BME280;74448;49.082;9.152;2024-03-06T12:36:54;99768.78;;;8.47;63.68
78229;BME280;74448;49.082;9.152;2024-03-06T12:39:20;99771.53;;;8.45;63.52
78229;BME280;74448;49.082;9.152;2024-03-06T12:41:50;99772.28;;;8.47;63.62
78229;BME280;74448;49.082;9.152;2024-03-06T12:44:19;99771.59;;;8.44;63.46
78229;BME280;74448;49.082;9.152;2024-03-06T12:46:46;99772.28;;;8.47;63.49
78229;BME280;74448;49.082;9.152;2024-03-06T12:49:13;99768.72;;;8.48;63.25
78229;BME280;74448;49.082;9.152;2024-03-06T12:51:39;99763.53;;;8.47;63.61
78229;BME280;74448;49.082;9.152;2024-03-06T12:54:07;99772.38;;;8.46;63.42
78229;BME280;74448;49.082;9.152;2024-03-06T12:56:35;99762.03;;;8.43;63.61
78229;BME280;74448;49.082;9.152;2024-03-06T12:59:02;99777.53;;;8.47;63.54
78229;BME280;74448;49.082;9.152;2024-03-06T13:01:30;99766.09;;;8.48;63.40
78229;BME280;74448;49.082;9.152;2024-03-06T13:03:56;99770.47;;;8.48;63.43
78229;BME280;74448;49.082;9.152;2024-03-06T13:06:32;99763.47;;;8.48;63.75
78229;BME280;74448;49.082;9.152;2024-03-06T13:08:59;99766.09;;;8.48;63.38
78229;BME280;74448;49.082;9.152;2024-03-06T13:11:26;99762.59;;;8.48;63.61
78229;BME280;74448;49.082;9.152;2024-03-06T13:13:52;99765.13;;;8.50;63.40
78229;BME280;74448;49.082;9.152;2024-03-06T13:16:21;99764.28;;;8.49;63.37
78229;BME280;74448;49.082;9.152;2024-03-06T13:18:48;99767.66;;;8.51;63.28
78229;BME280;74448;49.082;9.152;2024-03-06T13:21:16;99757.41;;;8.46;63.54
78229;BME280;74448;49.082;9.152;2024-03-06T13:23:42;99767.00;;;8.47;63.77
78229;BME280;74448;49.082;9.152;2024-03-06T13:26:09;99758.25;;;8.47;63.49
78229;BME280;74448;49.082;9.152;2024-03-06T13:28:36;99768.50;;;8.52;63.31
78229;BME280;74448;49.082;9.152;2024-03-06T13:31:02;99759.88;;;8.50;63.43
78229;BME280;74448;49.082;9.152;2024-03-06T13:33:29;99767.56;;;8.53;63.43
78229;BME280;74448;49.082;9.152;2024-03-06T13:35:55;99758.81;;;8.52;63.43